Time;durP1;ratioP1;P1;durP2;ratioP2;P2;SDS_P1;SDS_P2;PMS_P1;PMS_P2;Temp;Humidity;BMP_temperature;BMP_pressure;BME280_temperature;BME280_humidity;BME280_pressure;Samples;Min_cycle;Max_cycle;Signal;HPM_P1;HPM_P2
2021/07/17 00:03:08;;;;;;;22.13;8.90;;;;;;;17.53;80.89;102450.88;10461909;28;20543;-64
2021/07/17 00:08:10;;;;;;;24.85;9.88;;;;;;;17.39;81.25;102445.59;10461392;28;20052;-65
2021/07/17 00:13:13;;;;;;;25.60;10.10;;;;;;;17.39;81.98;102450.88;10461408;28;20067;-63
2021/07/17 00:18:17;;;;;;;32.20;13.40;;;;;;;17.32;82.48;102445.09;10461920;28;20045;-64
2021/07/17 00:23:19;;;;;;;26.75;11.85;;;;;;;17.23;82.64;102446.50;10461679;28;20060;-63
2021/07/17 00:28:22;;;;;;;33.20;12.88;;;;;;;17.31;82.43;102448.66;10461581;28;20049;-63
2021/07/17 00:33:24;;;;;;;29.20;10.68;;;;;;;17.32;82.21;102442.44;10461498;28;20048;-63
2021/07/17 00:38:26;;;;;;;24.58;9.45;;;;;;;17.39;81.91;102449.06;10460922;28;20052;-63
2021/07/17 00:43:29;;;;;;;24.65;12.10;;;;;;;17.28;82.66;102446.22;10461087;28;20045;-64
2021/07/17 00:48:31;;;;;;;22.15;11.93;;;;;;;17.31;82.55;102447.84;10460634;28;20041;-64
2021/07/17 00:53:33;;;;;;;24.77;11.27;;;;;;;17.36;82.55;102438.66;10460053;28;20045;-63
2021/07/17 00:58:37;;;;;;;29.95;11.85;;;;;;;17.41;81.88;102441.03;10460206;28;20076;-64
2021/07/17 01:03:40;;;;;;;30.05;11.50;;;;;;;17.41;81.83;102441.03;10460345;28;20045;-63
2021/07/17 01:08:46;;;;;;;24.92;11.07;;;;;;;17.40;81.85;102448.13;10458598;28;20547;-64
2021/07/17 01:13:49;;;;;;;22.10;11.07;;;;;;;17.22;82.49;102454.53;10459199;28;20507;-65
2021/07/17 01:18:51;;;;;;;33.08;12.63;;;;;;;17.22;82.35;102447.44;10459200;28;20374;-64
2021/07/17 01:23:54;;;;;;;26.83;11.27;;;;;;;17.26;82.91;102445.44;10459324;28;20056;-63
2021/07/17 01:28:56;;;;;;;28.00;10.43;;;;;;;17.19;82.88;102449.41;10458709;28;20045;-63
2021/07/17 01:33:58;;;;;;;34.38;12.82;;;;;;;16.98;83.47;102455.03;10458875;28;20079;-63
2021/07/17 01:39:01;;;;;;;30.02;10.65;;;;;;;17.02;83.35;102463.63;10458706;28;20066;-63
2021/07/17 01:44:04;;;;;;;26.83;12.88;;;;;;;17.04;83.42;102452.00;10458342;28;20041;-63
2021/07/17 01:49:06;;;;;;;32.08;11.65;;;;;;;17.03;82.98;102449.44;10457053;28;20045;-63
2021/07/17 01:54:08;;;;;;;33.20;11.85;;;;;;;17.07;83.19;102441.25;10458661;28;20052;-63
2021/07/17 01:59:12;;;;;;;26.27;12.45;;;;;;;16.91;83.80;102448.38;10457689;28;20441;-64
2021/07/17 02:04:14;;;;;;;28.10;11.48;;;;;;;17.02;82.64;102443.31;10457881;28;20041;-63
2021/07/17 02:09:16;;;;;;;28.42;11.52;;;;;;;16.76;83.57;102441.28;10457265;28;20128;-65
2021/07/17 02:14:19;;;;;;;29.48;11.57;;;;;;;16.84;83.28;102444.34;10457080;28;20045;-64
2021/07/17 02:19:22;;;;;;;28.48;11.50;;;;;;;16.63;83.44;102449.09;10457311;28;20052;-63
2021/07/17 02:24:25;;;;;;;32.53;12.65;;;;;;;16.64;84.15;102448.13;10456953;28;20045;-64
2021/07/17 02:29:27;;;;;;;25.70;10.90;;;;;;;16.65;84.01;102450.69;10456134;28;20071;-63
2021/07/17 02:34:29;;;;;;;31.52;12.25;;;;;;;16.64;83.16;102451.66;10455660;28;20055;-63
2021/07/17 02:39:32;;;;;;;28.58;12.05;;;;;;;16.53;84.61;102454.91;10457150;28;20041;-64
2021/07/17 02:44:34;;;;;;;30.02;11.85;;;;;;;16.67;83.91;102454.09;10455142;28;20041;-64
2021/07/17 02:49:36;;;;;;;28.60;11.70;;;;;;;16.84;82.41;102441.72;10456550;28;20087;-63
2021/07/17 02:54:39;;;;;;;25.67;10.07;;;;;;;16.58;83.66;102453.78;10456614;28;20053;-63
2021/07/17 02:59:41;;;;;;;30.25;12.70;;;;;;;16.60;83.55;102450.13;10455047;28;20045;-64
2021/07/17 03:04:43;;;;;;;31.45;10.32;;;;;;;16.86;82.65;102443.38;10455247;28;20041;-64
2021/07/17 03:09:46;;;;;;;27.80;12.30;;;;;;;16.56;84.14;102453.00;10455884;28;20048;-63
2021/07/17 03:14:48;;;;;;;23.25;11.35;;;;;;;16.85;82.05;102449.59;10456268;28;20057;-64
2021/07/17 03:19:51;;;;;;;29.67;11.63;;;;;;;16.71;83.48;102460.09;10456090;28;20055;-63
2021/07/17 03:24:53;;;;;;;27.38;13.00;;;;;;;16.55;83.33;102454.81;10455756;28;20045;-62
2021/07/17 03:29:55;;;;;;;29.30;12.65;;;;;;;16.45;84.04;102457.09;10455831;28;20045;-63
2021/07/17 03:34:58;;;;;;;26.30;11.02;;;;;;;16.42;83.71;102456.44;10455565;28;20057;-62
2021/07/17 03:40:00;;;;;;;37.65;12.43;;;;;;;16.24;84.99;102461.81;10461334;28;20051;-63
2021/07/17 03:45:03;;;;;;;28.70;11.70;;;;;;;16.58;83.25;102453.78;10461820;28;20486;-63
2021/07/17 03:50:06;;;;;;;20.08;9.35;;;;;;;16.59;83.22;102461.63;10463066;28;20040;-63
2021/07/17 03:55:09;;;;;;;32.65;11.65;;;;;;;16.54;83.23;102458.38;10462821;28;20053;-63
2021/07/17 04:00:12;;;;;;;29.65;12.23;;;;;;;16.55;83.89;102454.81;10462309;28;20060;-64
2021/07/17 04:05:16;;;;;;;28.50;11.77;;;;;;;16.22;84.97;102455.72;10462595;28;20045;-63
2021/07/17 04:10:19;;;;;;;30.33;11.52;;;;;;;16.41;84.37;102455.59;10462106;28;20478;-63
2021/07/17 04:15:21;;;;;;;30.08;12.85;;;;;;;16.26;85.53;102449.38;10461681;28;20077;-63
2021/07/17 04:20:24;;;;;;;29.10;10.52;;;;;;;16.52;84.23;102450.56;10461848;28;20053;-63
2021/07/17 04:25:26;;;;;;;25.95;10.30;;;;;;;16.55;83.35;102451.31;10443975;28;20055;-63
2021/07/17 04:30:28;;;;;;;23.30;10.27;;;;;;;16.51;84.30;102453.28;10461966;28;20052;-63
2021/07/17 04:35:31;;;;;;;30.27;14.48;;;;;;;16.48;84.26;102456.09;10461122;28;20412;-62
2021/07/17 04:40:33;;;;;;;26.13;10.13;;;;;;;16.71;83.78;102458.28;10461518;28;20045;-64
2021/07/17 04:45:35;;;;;;;31.08;12.70;;;;;;;16.46;84.53;102455.34;10460685;28;20045;-63
2021/07/17 04:50:38;;;;;;;25.92;10.35;;;;;;;16.51;84.11;102455.94;10460058;28;20049;-63
2021/07/17 04:55:40;;;;;;;34.72;12.07;;;;;;;16.40;84.37;102456.50;10460462;28;20056;-63
2021/07/17 05:00:42;;;;;;;34.25;13.88;;;;;;;16.35;84.85;102462.06;10460275;28;20107;-63
2021/07/17 05:05:45;;;;;;;36.08;11.25;;;;;;;16.48;85.11;102464.88;10459209;28;20107;-63
2021/07/17 05:10:48;;;;;;;27.23;9.20;;;;;;;16.49;84.35;102461.31;10459948;28;20067;-62
2021/07/17 05:15:50;;;;;;;35.30;11.63;;;;;;;16.40;85.10;102459.16;10459784;28;20053;-63
2021/07/17 05:20:53;;;;;;;35.33;12.00;;;;;;;16.38;85.12;102465.50;10459411;28;20041;-63
2021/07/17 05:25:55;;;;;;;32.05;11.48;;;;;;;16.37;84.83;102467.25;10459161;28;20056;-65
2021/07/17 05:30:57;;;;;;;34.60;10.75;;;;;;;16.50;85.04;102470.91;10458101;28;20052;-63
2021/07/17 05:36:00;;;;;;;32.00;12.13;;;;;;;16.49;85.22;102474.53;10458490;28;20049;-63
2021/07/17 05:41:02;;;;;;;27.25;10.32;;;;;;;16.79;84.42;102476.34;10458729;28;20056;-64
2021/07/17 05:46:04;;;;;;;29.33;10.05;;;;;;;16.71;84.38;102475.97;10458192;28;20053;-63
2021/07/17 05:51:07;;;;;;;27.45;10.45;;;;;;;17.05;84.07;102471.41;10458136;28;20044;-62
2021/07/17 05:56:09;;;;;;;29.40;10.85;;;;;;;17.16;83.64;102468.13;10458203;28;20048;-62
2021/07/17 06:01:11;;;;;;;26.63;9.30;;;;;;;17.44;82.66;102478.75;10457682;28;20398;-63
2021/07/17 06:06:14;;;;;;;34.65;10.52;;;;;;;17.37;83.40;102485.38;10457646;28;20045;-63
2021/07/17 06:11:16;;;;;;;22.05;8.00;;;;;;;17.57;83.39;102489.47;10457570;28;20396;-62
2021/07/17 06:16:18;;;;;;;26.23;9.68;;;;;;;17.88;82.40;102490.28;10457470;28;20072;-64
2021/07/17 06:21:21;;;;;;;22.58;8.05;;;;;;;17.83;82.07;102495.81;10457025;28;20080;-64
2021/07/17 06:26:23;;;;;;;25.55;8.15;;;;;;;18.15;81.21;102500.13;10456827;28;20056;-63
2021/07/17 06:31:25;;;;;;;27.33;8.55;;;;;;;18.28;81.79;102506.34;10456056;28;20041;-62
2021/07/17 06:36:28;;;;;;;19.25;8.20;;;;;;;17.85;81.87;102506.34;10455677;28;20055;-62
2021/07/17 06:41:30;;;;;;;21.35;6.78;;;;;;;18.10;81.31;102511.00;10456672;28;20048;-64
2021/07/17 06:46:33;;;;;;;21.23;7.82;;;;;;;18.25;80.80;102516.31;10456513;28;20057;-64
2021/07/17 06:51:35;;;;;;;13.77;6.28;;;;;;;18.28;81.77;102521.44;10456965;28;20102;-62
2021/07/17 06:56:38;;;;;;;19.98;6.82;;;;;;;18.74;80.14;102524.66;10455052;28;20096;-63
2021/07/17 07:01:40;;;;;;;16.73;5.82;;;;;;;18.60;78.75;102532.63;10456553;28;20049;-63
2021/07/17 07:06:43;;;;;;;14.23;6.20;;;;;;;18.45;80.03;102536.28;10456239;28;20091;-62
2021/07/17 07:11:45;;;;;;;18.13;6.20;;;;;;;18.54;79.92;102541.84;10456777;28;20060;-63
2021/07/17 07:16:49;;;;;;;25.35;6.55;;;;;;;18.09;81.17;102546.44;10464453;28;20061;-63
2021/07/17 07:21:51;;;;;;;18.13;6.25;;;;;;;18.89;78.98;102545.84;10464310;28;20071;-64
2021/07/17 07:26:56;;;;;;;14.18;5.43;;;;;;;18.98;77.34;102553.22;10464000;28;20045;-63
2021/07/17 07:31:59;;;;;;;14.00;6.10;;;;;;;20.09;74.76;102550.22;10463932;28;20060;-63
2021/07/17 07:37:02;;;;;;;14.02;5.10;;;;;;;19.46;76.87;102558.88;10463269;28;20041;-63
2021/07/17 07:42:05;;;;;;;16.83;6.22;;;;;;;19.43;76.08;102560.88;10463160;28;20045;-64
2021/07/17 07:47:07;;;;;;;11.80;5.45;;;;;;;18.91;76.56;102554.56;10461747;28;20048;-63
2021/07/17 07:52:10;;;;;;;15.02;6.47;;;;;;;19.21;77.19;102550.84;10463266;28;20049;-63
2021/07/17 07:57:12;;;;;;;14.07;5.47;;;;;;;19.75;75.15;102556.06;10462560;28;20489;-62
2021/07/17 08:02:15;;;;;;;13.80;5.85;;;;;;;19.62;75.68;102555.19;10462408;28;20603;-66
2021/07/17 08:07:17;;;;;;;16.77;5.50;;;;;;;19.71;75.27;102548.41;10461057;28;20060;-64
2021/07/17 08:12:20;;;;;;;8.20;4.43;;;;;;;20.51;72.05;102553.44;10462134;28;20055;-63
2021/07/17 08:17:22;;;;;;;10.23;4.88;;;;;;;21.09;70.51;102549.19;10461929;28;20045;-64
2021/07/17 08:22:25;;;;;;;10.55;4.43;;;;;;;21.00;70.12;102543.72;10461871;28;20136;-63
2021/07/17 08:27:28;;;;;;;12.43;4.47;;;;;;;21.75;68.32;102548.69;10460610;28;20045;-63
2021/07/17 08:32:30;;;;;;;12.00;4.40;;;;;;;21.92;67.22;102547.38;10461453;28;20050;-63
2021/07/17 08:37:35;;;;;;;9.60;4.80;;;;;;;22.72;66.75;102543.69;10461080;28;20041;-62
2021/07/17 08:42:44;;;;;;;11.02;4.43;;;;;;;23.00;66.10;102539.59;10461226;28;20069;-61
2021/07/17 08:47:47;;;;;;;7.70;3.28;;;;;;;22.78;65.17;102545.88;10460958;28;20055;-62
2021/07/17 08:52:52;;;;;;;8.45;2.80;;;;;;;23.41;63.60;102544.31;10459341;28;20397;-62
2021/07/17 08:57:55;;;;;;;6.85;2.53;;;;;;;24.01;60.64;102539.19;10459365;28;20056;-62
2021/07/17 09:03:04;;;;;;;6.93;2.70;;;;;;;23.16;59.67;102539.19;10459579;28;20045;-63
2021/07/17 09:08:06;;;;;;;8.73;2.85;;;;;;;23.42;61.52;102552.19;10458643;28;20067;-59
2021/07/17 09:13:16;;;;;;;9.25;2.95;;;;;;;22.90;61.88;102536.00;10458393;28;20067;-59
2021/07/17 09:18:28;;;;;;;11.32;3.30;;;;;;;23.34;59.31;102538.63;10459661;28;20477;-59
2021/07/17 09:23:36;;;;;;;8.05;3.92;;;;;;;24.07;58.08;102535.97;10457950;28;20453;-60
2021/07/17 09:28:39;;;;;;;9.57;2.85;;;;;;;24.46;60.39;102536.94;10459228;28;20124;-60
2021/07/17 09:33:42;;;;;;;7.82;2.70;;;;;;;24.56;58.26;102536.13;10459045;28;20056;-59
2021/07/17 09:38:51;;;;;;;5.80;2.20;;;;;;;24.97;56.48;102542.25;10457461;28;20056;-60
2021/07/17 09:44:00;;;;;;;6.75;2.22;;;;;;;24.64;58.12;102533.63;10458596;28;20052;-59
2021/07/17 09:49:03;;;;;;;6.20;2.25;;;;;;;24.28;57.25;102528.72;10458272;28;20493;-60
2021/07/17 09:54:06;;;;;;;8.20;2.50;;;;;;;25.01;57.14;102523.06;10458312;28;20048;-60
2021/07/17 09:59:13;;;;;;;5.93;2.22;;;;;;;24.59;54.86;102522.47;10458245;28;20102;-59
2021/07/17 10:04:16;;;;;;;6.82;2.15;;;;;;;24.64;57.04;102518.38;10458110;28;20057;-61
2021/07/17 10:09:30;;;;;;;3.72;1.85;;;;;;;26.07;55.42;102509.56;10457622;28;20102;-63
2021/07/17 10:14:33;;;;;;;6.15;2.03;;;;;;;25.90;56.07;102511.16;10457814;28;20479;-61
2021/07/17 10:19:40;;;;;;;6.70;2.50;;;;;;;24.79;55.78;102516.16;10456047;28;20079;-59
2021/07/17 10:24:44;;;;;;;5.25;2.22;;;;;;;25.79;52.59;102508.69;10457042;28;20496;-60
2021/07/17 10:29:46;;;;;;;6.38;1.90;;;;;;;24.97;55.08;102512.78;10455657;28;20053;-57
2021/07/17 10:34:50;;;;;;;12.27;2.13;;;;;;;26.65;53.86;102511.09;10455759;28;20057;-60
2021/07/17 10:40:15;;;;;;;4.05;1.83;;;;;;;26.13;54.81;102518.88;10457037;28;20052;-59
2021/07/17 10:45:37;;;;;;;3.88;1.40;;;;;;;26.57;54.40;102505.59;10450460;28;20045;-60
2021/07/17 10:50:40;;;;;;;4.60;1.63;;;;;;;27.29;51.59;102516.34;10454455;28;20477;-60
2021/07/17 10:55:42;;;;;;;11.88;5.88;;;;;;;26.41;53.80;102506.28;10456466;28;20056;-60
2021/07/17 11:00:55;;;;;;;6.75;2.22;;;;;;;27.05;53.75;102511.63;10455048;28;20508;-60
2021/07/17 11:06:22;;;;;;;3.67;1.90;;;;;;;26.74;52.79;102500.41;10456036;28;20519;-60
2021/07/17 11:11:27;;;;;;;3.85;2.13;;;;;;;28.27;48.92;102509.81;10456007;28;20060;-62
2021/07/17 11:16:44;;;;;;;2.88;1.30;;;;;;;27.77;48.98;102503.34;10456335;28;20131;-59
2021/07/17 11:21:47;;;;;;;5.65;1.90;;;;;;;27.22;52.24;102499.16;10455956;28;20071;-60
2021/07/17 11:27:09;;;;;;;6.32;1.77;;;;;;;27.42;50.20;102505.19;10455673;28;20048;-59
2021/07/17 11:32:14;;;;;;;1.90;1.27;;;;;;;27.49;52.32;102508.94;10455744;28;20045;-60
2021/07/17 11:37:20;;;;;;;3.05;1.73;;;;;;;27.96;50.08;102495.06;10455280;28;20099;-60
2021/07/17 11:42:23;;;;;;;3.60;1.30;;;;;;;28.06;48.65;102488.69;10453969;28;20052;-60
2021/07/17 11:47:30;;;;;;;3.38;1.60;;;;;;;28.38;50.70;102482.56;10455119;28;20504;-61
2021/07/17 11:52:35;;;;;;;5.72;1.55;;;;;;;27.27;47.42;102480.69;10454034;28;20497;-61
2021/07/17 11:57:42;;;;;;;3.83;1.60;;;;;;;26.65;48.60;102475.34;10455662;28;20057;-60
2021/07/17 12:02:52;;;;;;;3.40;1.10;;;;;;;30.13;49.50;102456.84;10462782;28;20076;-60
2021/07/17 12:07:55;;;;;;;3.83;1.30;;;;;;;26.22;50.22;102466.13;10462163;28;20051;-63
2021/07/17 12:13:03;;;;;;;5.20;1.85;;;;;;;27.28;47.65;102458.16;10461817;28;20055;-61
2021/07/17 12:18:13;;;;;;;2.03;1.08;;;;;;;27.96;50.71;102457.38;10461846;28;20045;-60
2021/07/17 12:23:18;;;;;;;2.58;0.95;;;;;;;28.98;49.34;102456.34;10462124;28;20089;-63
2021/07/17 12:28:34;;;;;;;3.55;1.20;;;;;;;29.60;45.17;102448.47;10461658;28;20048;-59
2021/07/17 12:33:40;;;;;;;3.25;1.30;;;;;;;31.18;45.12;102449.13;10461289;28;20049;-60
2021/07/17 12:38:56;;;;;;;4.22;1.20;;;;;;;28.22;46.55;102439.44;10461167;28;20071;-60
2021/07/17 12:44:03;;;;;;;3.72;1.55;;;;;;;28.40;45.24;102431.25;10460762;28;20428;-59
2021/07/17 12:49:13;;;;;;;3.00;1.33;;;;;;;30.49;44.61;102431.97;10460504;28;20505;-61
2021/07/17 12:54:21;;;;;;;1.42;1.05;;;;;;;30.01;46.14;102428.56;10461049;28;20052;-63
2021/07/17 12:59:35;;;;;;;1.95;1.20;;;;;;;29.74;43.20;102429.84;10460223;28;20060;-60
2021/07/17 13:04:48;;;;;;;4.82;1.63;;;;;;;29.22;44.55;102429.38;10458677;28;20053;-62
2021/07/17 13:09:50;;;;;;;3.30;1.30;;;;;;;29.68;43.73;102427.88;10459304;28;20056;-62
2021/07/17 13:14:52;;;;;;;1.88;1.10;;;;;;;29.08;45.43;102430.03;10459682;28;20061;-61
2021/07/17 13:20:09;;;;;;;4.00;1.63;;;;;;;29.48;43.33;102427.44;10459627;28;20053;-61
2021/07/17 13:25:21;;;;;;;4.15;1.35;;;;;;;30.92;43.89;102431.44;10459155;28;20053;-62
2021/07/17 13:30:30;;;;;;;2.50;1.10;;;;;;;30.28;41.67;102424.50;10458153;28;20041;-61
2021/07/17 13:35:32;;;;;;;3.33;1.70;;;;;;;29.97;43.08;102427.22;10459483;28;20045;-62
2021/07/17 13:40:48;;;;;;;3.53;1.58;;;;;;;30.06;46.37;102426.19;10458811;28;20045;-63
2021/07/17 13:46:01;;;;;;;3.33;1.77;;;;;;;29.00;41.53;102420.13;10457298;28;20607;-63
2021/07/17 13:51:13;;;;;;;5.90;1.20;;;;;;;29.30;46.11;102414.19;10458723;28;20052;-62
2021/07/17 13:56:16;;;;;;;2.17;1.05;;;;;;;30.24;43.76;102411.53;10457958;28;20413;-62
2021/07/17 14:01:21;;;;;;;3.20;1.02;;;;;;;29.07;43.41;102413.03;10458246;28;20063;-60
2021/07/17 14:06:28;;;;;;;4.53;1.00;;;;;;;28.77;40.39;102411.91;10457606;28;20088;-63
2021/07/17 14:11:34;;;;;;;1.05;0.90;;;;;;;29.50;38.59;102401.13;10456876;28;20041;-61
2021/07/17 14:16:36;;;;;;;1.63;1.00;;;;;;;28.89;40.89;102409.69;10457384;28;20057;-63
2021/07/17 14:21:39;;;;;;;4.82;1.10;;;;;;;29.62;43.50;102397.88;10457971;28;20084;-63
2021/07/17 14:26:41;;;;;;;1.55;0.98;;;;;;;30.83;42.86;102398.22;10456098;28;20106;-62
2021/07/17 14:31:44;;;;;;;5.50;1.10;;;;;;;30.73;38.31;102398.50;10456315;28;20045;-63
2021/07/17 14:36:46;;;;;;;3.85;0.60;;;;;;;30.97;38.64;102396.59;10456946;28;20049;-60
2021/07/17 14:41:48;;;;;;;0.82;0.60;;;;;;;28.07;36.83;102404.25;10457400;28;20068;-60
2021/07/17 14:46:51;;;;;;;2.60;0.88;;;;;;;27.96;38.30;102390.09;10457047;28;20045;-60
2021/07/17 14:51:53;;;;;;;2.33;0.75;;;;;;;30.48;34.87;102384.38;10455377;28;20045;-60
2021/07/17 14:56:58;;;;;;;1.23;0.80;;;;;;;29.39;40.16;102397.78;10456325;28;20064;-61
2021/07/17 15:02:03;;;;;;;2.53;1.05;;;;;;;29.35;36.52;102382.13;10456291;28;20048;-59
2021/07/17 15:07:07;;;;;;;3.90;1.00;;;;;;;29.14;37.15;102380.00;10456408;28;20153;-60
2021/07/17 15:12:09;;;;;;;3.22;0.70;;;;;;;28.05;40.45;102376.66;10456144;28;20049;-61
2021/07/17 15:17:12;;;;;;;1.95;0.85;;;;;;;30.45;37.77;102370.38;10456763;28;20060;-60
2021/07/17 15:22:14;;;;;;;11.07;1.10;;;;;;;29.77;39.29;102376.41;10455804;28;20056;-61
2021/07/17 15:27:17;;;;;;;2.63;0.85;;;;;;;28.47;40.22;102379.19;10455401;28;20485;-61
2021/07/17 15:32:19;;;;;;;3.17;1.58;;;;;;;28.15;38.90;102370.09;10456278;28;20049;-64
2021/07/17 15:37:21;;;;;;;2.55;0.80;;;;;;;28.37;38.01;102378.53;10463623;28;20053;-62
2021/07/17 15:42:24;;;;;;;2.67;0.82;;;;;;;28.83;38.68;102378.03;10463324;28;20390;-61
2021/07/17 15:47:26;;;;;;;1.60;0.65;;;;;;;28.40;38.85;102382.75;10463365;28;20045;-62
2021/07/17 15:52:31;;;;;;;1.85;1.00;;;;;;;28.27;40.19;102378.69;10462970;28;20412;-62
2021/07/17 15:57:33;;;;;;;1.38;1.15;;;;;;;27.84;38.78;102372.56;10462653;28;20404;-60
2021/07/17 16:02:36;;;;;;;1.70;1.10;;;;;;;27.13;42.30;102371.88;10462732;28;20076;-61
2021/07/17 16:07:39;;;;;;;9.30;1.65;;;;;;;28.32;42.32;102379.03;10462260;28;20064;-61
2021/07/17 16:12:41;;;;;;;2.63;1.10;;;;;;;27.51;42.49;102372.44;10462238;28;20041;-62
2021/07/17 16:17:44;;;;;;;2.95;1.10;;;;;;;27.27;42.66;102370.44;10462548;28;20466;-61
2021/07/17 16:22:46;;;;;;;1.70;0.95;;;;;;;27.56;44.17;102367.41;10462271;28;20045;-64
2021/07/17 16:27:48;;;;;;;1.42;0.75;;;;;;;28.26;42.69;102368.06;10461596;28;20041;-63
2021/07/17 16:32:51;;;;;;;2.90;1.15;;;;;;;27.55;44.12;102362.19;10461861;28;20044;-61
2021/07/17 16:37:54;;;;;;;1.33;0.85;;;;;;;27.56;44.23;102361.19;10461571;28;20044;-62
2021/07/17 16:42:56;;;;;;;5.15;1.35;;;;;;;26.94;45.04;102364.03;10461575;28;20049;-63
2021/07/17 16:47:58;;;;;;;2.60;1.20;;;;;;;25.94;48.91;102356.97;10459689;28;20041;-62
2021/07/17 16:53:01;;;;;;;9.05;1.15;;;;;;;26.30;45.00;102359.66;10460600;28;20041;-61
2021/07/17 16:58:04;;;;;;;3.30;1.17;;;;;;;26.38;47.95;102361.59;10460094;28;20378;-63
2021/07/17 17:03:07;;;;;;;0.80;0.80;;;;;;;26.07;47.40;102356.59;10459265;28;20053;-62
2021/07/17 17:08:10;;;;;;;2.40;0.85;;;;;;;26.30;47.29;102356.97;10460380;28;20497;-61
2021/07/17 17:13:12;;;;;;;1.67;0.80;;;;;;;26.05;48.72;102355.91;10460113;28;20067;-62
2021/07/17 17:18:17;;;;;;;3.65;0.98;;;;;;;26.05;49.51;102347.84;10459607;28;20053;-62
2021/07/17 17:23:20;;;;;;;5.28;1.23;;;;;;;26.08;49.63;102352.94;10459501;28;20461;-62
2021/07/17 17:28:22;;;;;;;9.02;1.35;;;;;;;26.04;51.06;102346.19;10459262;28;20045;-62
2021/07/17 17:33:24;;;;;;;5.28;1.40;;;;;;;25.68;50.88;102353.31;10459545;28;20539;-63
2021/07/17 17:38:26;;;;;;;2.15;0.90;;;;;;;25.63;52.05;102352.91;10459150;28;20048;-62
2021/07/17 17:43:29;;;;;;;1.67;1.05;;;;;;;25.09;54.00;102358.06;10458953;28;20056;-63
2021/07/17 17:48:31;;;;;;;1.48;0.80;;;;;;;25.20;53.57;102361.41;10458186;28;20045;-61
2021/07/17 17:53:33;;;;;;;4.90;1.15;;;;;;;24.96;53.58;102361.88;10457062;28;20052;-62
2021/07/17 17:58:36;;;;;;;3.28;1.15;;;;;;;24.56;54.83;102362.97;10458161;28;20049;-61
2021/07/17 18:03:38;;;;;;;3.58;1.70;;;;;;;24.67;54.80;102362.78;10458021;28;20048;-61
2021/07/17 18:08:41;;;;;;;3.25;1.10;;;;;;;24.71;56.52;102374.06;10457823;28;20045;-62
2021/07/17 18:13:43;;;;;;;3.15;1.48;;;;;;;24.50;58.02;102381.41;10457422;28;20063;-62
2021/07/17 18:18:45;;;;;;;6.90;1.38;;;;;;;24.28;58.15;102376.16;10456846;28;20090;-61
2021/07/17 18:23:48;;;;;;;8.95;1.63;;;;;;;24.06;59.12;102387.97;10456067;28;20048;-62
2021/07/17 18:28:53;;;;;;;3.25;1.40;;;;;;;23.64;59.96;102387.28;10457462;28;20045;-62
2021/07/17 18:33:57;;;;;;;5.50;1.52;;;;;;;23.54;60.55;102384.56;10456716;28;20045;-62
2021/07/17 18:39:00;;;;;;;5.38;1.52;;;;;;;23.20;60.47;102390.19;10455522;28;20053;-62
2021/07/17 18:44:03;;;;;;;3.30;1.30;;;;;;;23.17;60.43;102385.94;10456326;28;20508;-61
2021/07/17 18:49:08;;;;;;;2.75;1.65;;;;;;;23.09;60.40;102395.59;10456776;28;20055;-62
2021/07/17 18:54:10;;;;;;;1.60;1.30;;;;;;;22.68;61.61;102400.78;10456354;28;20057;-62
2021/07/17 18:59:13;;;;;;;4.85;1.27;;;;;;;22.69;60.09;102402.47;10456615;28;20048;-62
2021/07/17 19:04:15;;;;;;;2.85;1.30;;;;;;;22.36;60.85;102408.78;10456031;28;20404;-63
2021/07/17 19:09:17;;;;;;;5.25;1.73;;;;;;;22.34;60.72;102406.25;10459095;28;20511;-62
2021/07/17 19:14:19;;;;;;;2.38;1.20;;;;;;;21.85;61.60;102411.03;10463068;28;20060;-61
2021/07/17 19:19:22;;;;;;;2.72;1.17;;;;;;;21.87;60.88;102413.56;10464569;28;20076;-62
2021/07/17 19:24:24;;;;;;;3.53;1.02;;;;;;;21.69;61.56;102408.75;10463933;28;20045;-63
2021/07/17 19:29:26;;;;;;;1.80;1.00;;;;;;;21.45;61.97;102410.66;10464000;28;20056;-62
2021/07/17 19:34:29;;;;;;;2.97;1.10;;;;;;;21.36;61.46;102414.06;10463965;28;20053;-62
2021/07/17 19:39:31;;;;;;;5.00;1.20;;;;;;;21.19;61.46;102424.19;10463565;28;20041;-62
2021/07/17 19:44:34;;;;;;;2.63;1.00;;;;;;;20.99;62.48;102420.38;10463348;28;20055;-61
2021/07/17 19:49:36;;;;;;;2.65;0.80;;;;;;;21.16;62.77;102424.41;10463515;28;20041;-62
2021/07/17 19:54:42;;;;;;;4.05;1.20;;;;;;;21.12;62.81;102430.97;10462688;28;20053;-61
2021/07/17 19:59:45;;;;;;;1.60;0.90;;;;;;;20.86;63.82;102432.94;10462201;28;20041;-62
2021/07/17 20:04:47;;;;;;;2.70;1.05;;;;;;;20.67;64.56;102433.47;10461338;28;20052;-62
2021/07/17 20:09:49;;;;;;;1.75;0.88;;;;;;;20.54;64.46;102433.50;10462298;28;20071;-62
2021/07/17 20:14:52;;;;;;;1.83;1.20;;;;;;;20.37;65.93;102440.06;10461857;28;20420;-61
2021/07/17 20:19:54;;;;;;;5.18;1.33;;;;;;;20.09;66.15;102442.06;10461144;28;20041;-61
2021/07/17 20:24:56;;;;;;;2.40;1.25;;;;;;;20.14;67.13;102450.56;10460476;28;20045;-63
2021/07/17 20:29:59;;;;;;;2.30;1.60;;;;;;;20.16;66.93;102450.47;10461707;28;20052;-62
2021/07/17 20:35:01;;;;;;;3.72;1.30;;;;;;;20.10;67.93;102446.41;10461274;28;20493;-63
2021/07/17 20:40:05;;;;;;;1.85;1.17;;;;;;;20.11;67.38;102449.94;10460112;28;20515;-61
2021/07/17 20:45:08;;;;;;;3.92;1.52;;;;;;;19.90;68.70;102444.34;10460371;28;20045;-62
2021/07/17 20:50:11;;;;;;;5.07;1.88;;;;;;;19.65;69.88;102446.03;10460798;28;20053;-62
2021/07/17 20:55:16;;;;;;;4.78;1.70;;;;;;;19.61;70.23;102444.56;10460616;28;20045;-62
2021/07/17 21:00:22;;;;;;;1.75;1.58;;;;;;;19.87;69.49;102437.44;10459548;28;20041;-61
2021/07/17 21:05:24;;;;;;;3.45;1.70;;;;;;;19.43;70.70;102431.59;10459371;28;20484;-61
2021/07/17 21:10:28;;;;;;;3.55;2.50;;;;;;;19.23;71.56;102425.00;10460155;28;20048;-61
2021/07/17 21:15:30;;;;;;;4.90;1.73;;;;;;;19.12;71.95;102427.53;10460175;28;20052;-61
2021/07/17 21:20:33;;;;;;;4.95;2.13;;;;;;;19.02;73.11;102431.78;10459226;28;20048;-62
2021/07/17 21:25:39;;;;;;;3.47;1.92;;;;;;;19.02;73.17;102437.09;10459519;28;20049;-62
2021/07/17 21:30:42;;;;;;;7.28;2.60;;;;;;;18.99;72.62;102434.63;10458443;28;20546;-62
2021/07/17 21:35:45;;;;;;;4.75;1.85;;;;;;;18.57;74.50;102437.34;10459183;28;20060;-61
2021/07/17 21:40:49;;;;;;;3.45;2.00;;;;;;;18.69;74.81;102440.97;10458820;28;20051;-62
2021/07/17 21:45:51;;;;;;;2.05;1.80;;;;;;;18.65;74.57;102436.84;10457449;28;20049;-62
2021/07/17 21:50:53;;;;;;;4.40;2.38;;;;;;;18.80;73.89;102440.28;10458481;28;20611;-62
2021/07/17 21:56:03;;;;;;;5.72;2.05;;;;;;;18.59;74.76;102442.53;10458649;28;20052;-62
2021/07/17 22:01:06;;;;;;;4.57;1.95;;;;;;;18.57;74.83;102446.13;10458075;28;20409;-61
2021/07/17 22:06:08;;;;;;;3.40;2.45;;;;;;;18.35;76.40;102445.84;10457826;28;20045;-62
2021/07/17 22:11:11;;;;;;;4.53;2.15;;;;;;;18.25;76.40;102437.63;10456838;28;20056;-62
2021/07/17 22:16:13;;;;;;;3.92;1.98;;;;;;;18.35;76.41;102443.19;10456679;28;20052;-60
2021/07/17 22:21:17;;;;;;;3.78;2.15;;;;;;;17.95;77.90;102457.16;10458378;28;20052;-61
2021/07/17 22:26:19;;;;;;;6.93;3.45;;;;;;;18.12;77.14;102447.28;10457041;28;20532;-61
2021/07/17 22:31:21;;;;;;;5.75;2.42;;;;;;;17.97;78.17;102451.75;10456645;28;20044;-62
2021/07/17 22:36:23;;;;;;;3.83;2.83;;;;;;;18.05;77.48;102435.41;10455639;28;20049;-60
2021/07/17 22:41:26;;;;;;;3.28;2.67;;;;;;;17.73;79.01;102441.72;10456728;28;20421;-61
2021/07/17 22:46:28;;;;;;;5.15;2.70;;;;;;;17.65;79.57;102438.69;10455596;28;20049;-62
2021/07/17 22:51:30;;;;;;;5.45;2.88;;;;;;;17.78;79.37;102439.63;10456641;28;20049;-61
2021/07/17 22:56:33;;;;;;;3.58;3.05;;;;;;;17.76;79.14;102438.88;10456378;28;20060;-61
2021/07/17 23:01:36;;;;;;;5.40;3.33;;;;;;;17.81;78.70;102438.59;10456603;28;20052;-61
2021/07/17 23:06:38;;;;;;;4.95;3.15;;;;;;;17.91;78.68;102434.47;10456284;28;20049;-61